createdAt,value
2022-11-16T03:26:03.138Z,41.80
2022-11-16T03:27:04.135Z,41.60
2022-11-16T03:28:04.108Z,38.80
2022-11-16T03:29:04.097Z,41.60
2022-11-16T03:30:04.111Z,36.80
2022-11-16T03:31:04.074Z,36.30
2022-11-16T03:32:04.078Z,37.90
2022-11-16T03:33:04.056Z,37.10
2022-11-16T03:34:04.047Z,42.80
2022-11-16T03:35:04.054Z,42.20
2022-11-16T03:36:05.075Z,39.10
2022-11-16T03:37:04.025Z,40.70
2022-11-16T03:38:04.001Z,40.70
2022-11-16T03:39:03.990Z,40.00
2022-11-16T03:40:03.998Z,40.20
2022-11-16T03:41:03.969Z,39.40
2022-11-16T03:42:03.947Z,39.00
2022-11-16T03:43:03.946Z,39.70
2022-11-16T03:44:03.932Z,43.30
2022-11-16T03:45:03.970Z,40.70
2022-11-16T03:46:03.909Z,41.00
2022-11-16T03:47:03.898Z,39.10
2022-11-16T03:48:03.898Z,38.60
2022-11-16T03:49:03.873Z,37.90
2022-11-16T03:50:03.886Z,41.00
2022-11-16T03:51:03.858Z,38.20
2022-11-16T03:52:03.839Z,40.20
2022-11-16T03:53:03.851Z,37.30
2022-11-16T03:54:03.818Z,38.80
2022-11-16T03:55:03.827Z,42.00
2022-11-16T03:56:03.796Z,39.20
2022-11-16T03:57:03.787Z,40.90
2022-11-16T03:58:03.784Z,41.30
2022-11-16T03:59:03.774Z,44.60
2022-11-16T04:00:03.769Z,38.70
2022-11-16T04:01:03.848Z,37.90
2022-11-16T04:02:03.730Z,37.50
2022-11-16T04:03:03.723Z,38.20
2022-11-16T04:04:03.701Z,38.30
2022-11-16T04:05:03.730Z,39.30
2022-11-16T04:06:03.709Z,43.50
2022-11-16T04:07:03.785Z,39.60
2022-11-16T04:08:03.680Z,38.30
2022-11-16T04:09:03.672Z,37.20
2022-11-16T04:10:03.697Z,41.70
2022-11-16T04:11:03.636Z,38.30
2022-11-16T04:12:03.615Z,36.20
2022-11-16T04:13:03.603Z,37.20
2022-11-16T04:14:08.818Z,38.30
2022-11-16T04:15:03.649Z,42.40
2022-11-16T04:16:03.568Z,39.20
2022-11-16T04:17:03.563Z,37.10
2022-11-16T04:18:03.549Z,39.70
2022-11-16T04:19:03.561Z,37.70
2022-11-16T04:20:03.551Z,38.40
2022-11-16T04:21:03.521Z,38.50
2022-11-16T04:22:03.507Z,36.20
2022-11-16T04:23:03.496Z,38.60
2022-11-16T04:24:03.492Z,38.20
2022-11-16T04:25:03.504Z,40.00
2022-11-16T04:26:03.461Z,38.30
2022-11-16T04:27:03.461Z,37.40
2022-11-16T04:28:03.437Z,40.60
2022-11-16T04:29:03.435Z,38.40
2022-11-16T04:30:03.445Z,40.10
2022-11-16T04:31:03.425Z,41.30
2022-11-16T04:32:03.411Z,36.90
2022-11-16T04:33:03.391Z,40.20
2022-11-16T04:34:03.375Z,40.90
2022-11-16T04:35:03.410Z,38.20
2022-11-16T04:36:03.347Z,35.00
2022-11-16T04:37:03.342Z,38.20
2022-11-16T04:38:03.332Z,41.30
2022-11-16T04:39:03.330Z,39.80
2022-11-16T04:40:03.319Z,39.30
2022-11-16T04:41:03.298Z,42.70
2022-11-16T04:42:03.286Z,38.00
2022-11-16T04:43:03.279Z,34.40
2022-11-16T04:44:03.272Z,39.10
2022-11-16T04:45:03.270Z,47.10
2022-11-16T04:46:03.243Z,42.90
2022-11-16T04:47:03.226Z,41.00
2022-11-16T04:48:03.216Z,37.20
2022-11-16T04:49:03.208Z,40.20
2022-11-16T04:50:03.213Z,39.80
2022-11-16T04:51:03.187Z,37.50
2022-11-16T04:52:03.173Z,40.10
2022-11-16T04:53:03.162Z,40.80
2022-11-16T04:54:03.155Z,37.70
2022-11-16T04:55:03.168Z,37.70
2022-11-16T04:56:03.122Z,37.00
2022-11-16T04:57:03.118Z,41.50
2022-11-16T04:58:03.107Z,38.60
2022-11-16T04:59:03.089Z,39.40
2022-11-16T05:00:03.098Z,37.10
2022-11-16T05:01:03.153Z,40.00
2022-11-16T05:02:03.060Z,38.70
2022-11-16T05:03:03.051Z,36.90
2022-11-16T05:04:03.039Z,37.40
2022-11-16T05:05:03.050Z,40.80
2022-11-16T05:06:03.032Z,36.10
2022-11-16T05:07:03.049Z,37.10
2022-11-16T05:08:02.997Z,38.30
2022-11-16T05:09:02.974Z,40.00
2022-11-16T05:10:02.991Z,43.60
2022-11-16T05:11:02.963Z,37.10
2022-11-16T05:12:02.951Z,37.90
2022-11-16T05:13:02.940Z,39.70
2022-11-16T05:14:02.958Z,40.10
2022-11-16T05:15:02.943Z,41.10
2022-11-16T05:16:02.908Z,40.70
2022-11-16T05:17:02.895Z,39.00
2022-11-16T05:18:02.899Z,42.60
2022-11-16T05:19:02.880Z,41.40
2022-11-16T05:20:02.878Z,44.00
2022-11-16T05:21:02.855Z,41.80
2022-11-16T05:22:02.836Z,39.00
2022-11-16T05:23:02.831Z,37.30
2022-11-16T05:24:02.821Z,41.10
2022-11-16T05:25:02.825Z,45.20
2022-11-16T05:26:02.799Z,42.80
2022-11-16T05:27:02.804Z,39.20
2022-11-16T05:28:02.776Z,42.60
2022-11-16T05:29:02.768Z,44.70
2022-11-16T05:30:02.796Z,41.20
2022-11-16T05:31:02.736Z,39.40
2022-11-16T05:32:02.727Z,43.00
2022-11-16T05:33:02.742Z,41.60
2022-11-16T05:34:02.706Z,37.10
2022-11-16T05:35:02.715Z,42.10
2022-11-16T05:36:02.682Z,39.40
2022-11-16T05:37:02.672Z,39.50
2022-11-16T05:38:02.687Z,41.80
2022-11-16T05:39:02.652Z,41.60
2022-11-16T05:40:02.649Z,43.00
2022-11-16T05:41:02.647Z,42.20
2022-11-16T05:42:02.615Z,42.60
2022-11-16T05:43:02.612Z,42.60
2022-11-16T05:44:02.600Z,40.10
2022-11-16T05:45:02.588Z,39.30
2022-11-16T05:46:02.588Z,37.90
2022-11-16T05:47:02.576Z,40.30
2022-11-16T05:48:02.547Z,40.40
2022-11-16T05:49:03.219Z,42.30
2022-11-16T05:50:02.517Z,42.20
2022-11-16T05:51:02.531Z,39.20
2022-11-16T05:52:02.502Z,38.50
2022-11-16T05:53:02.492Z,39.00
2022-11-16T05:54:02.476Z,37.50
2022-11-16T05:55:02.467Z,39.60
2022-11-16T05:56:02.560Z,38.90
2022-11-16T05:57:02.454Z,39.90
2022-11-16T05:58:02.430Z,35.60
2022-11-16T05:59:02.429Z,41.00
2022-11-16T06:00:02.419Z,38.40
2022-11-16T06:01:02.423Z,35.20
2022-11-16T06:02:02.385Z,37.30
2022-11-16T06:03:02.434Z,43.20
2022-11-16T06:04:02.373Z,36.40
2022-11-16T06:05:02.360Z,39.60
2022-11-16T06:06:02.370Z,37.80
2022-11-16T06:07:02.380Z,40.10
2022-11-16T06:08:02.319Z,37.70
2022-11-16T06:09:02.323Z,42.60
2022-11-16T06:10:02.300Z,37.00
2022-11-16T06:11:02.309Z,35.70
2022-11-16T06:12:02.270Z,40.10
2022-11-16T06:13:02.286Z,35.60
2022-11-16T06:14:02.261Z,34.60
2022-11-16T06:15:02.255Z,38.30
2022-11-16T06:16:02.256Z,37.60
2022-11-16T06:17:02.232Z,39.00
2022-11-16T06:18:02.217Z,38.00
2022-11-16T06:19:02.198Z,34.70
2022-11-16T06:20:02.197Z,40.70
2022-11-16T06:21:02.216Z,36.30
2022-11-16T06:22:02.173Z,38.30
2022-11-16T06:23:02.153Z,37.90
2022-11-16T06:24:02.155Z,38.30
2022-11-16T06:25:02.145Z,38.40
2022-11-16T06:26:02.149Z,36.40
2022-11-16T06:27:02.114Z,38.90
2022-11-16T06:28:07.534Z,39.10
2022-11-16T06:29:02.092Z,37.50
2022-11-16T06:30:02.080Z,37.60
2022-11-16T06:31:02.087Z,37.80
2022-11-16T06:32:02.056Z,39.10
2022-11-16T06:33:02.050Z,39.50
2022-11-16T06:34:02.024Z,39.90
2022-11-16T06:35:02.025Z,40.90
2022-11-16T06:36:02.028Z,40.10
2022-11-16T06:37:02.022Z,41.00
2022-11-16T06:38:01.978Z,40.20
2022-11-16T06:39:01.999Z,37.50
2022-11-16T06:40:01.984Z,39.50
2022-11-16T06:41:01.972Z,39.70
2022-11-16T06:42:01.952Z,41.80
2022-11-16T06:43:01.941Z,43.40
2022-11-16T06:44:01.930Z,39.20
2022-11-16T06:45:01.933Z,40.30
2022-11-16T06:46:01.935Z,42.90
2022-11-16T06:47:01.883Z,38.60
2022-11-16T06:48:01.879Z,40.50
2022-11-16T06:49:01.872Z,40.70
2022-11-16T06:50:01.856Z,39.20
2022-11-16T06:51:01.886Z,40.40
2022-11-16T06:52:01.828Z,37.90
2022-11-16T06:53:01.821Z,41.00
2022-11-16T06:54:01.817Z,37.80
2022-11-16T06:55:01.820Z,39.50
2022-11-16T06:56:01.812Z,41.40
2022-11-16T06:57:01.774Z,40.40
2022-11-16T06:58:01.766Z,36.10
2022-11-16T06:59:01.764Z,39.00
2022-11-16T07:00:01.787Z,38.00
2022-11-16T07:01:01.755Z,41.60
2022-11-16T07:02:01.789Z,42.20
2022-11-16T07:03:01.712Z,35.80
2022-11-16T07:04:01.696Z,36.10
2022-11-16T07:05:03.771Z,41.40
2022-11-16T07:06:01.695Z,36.90
2022-11-16T07:07:01.780Z,37.10
2022-11-16T07:08:01.652Z,38.90
2022-11-16T07:09:01.642Z,39.30
2022-11-16T07:10:01.632Z,36.80
2022-11-16T07:11:04.325Z,39.60
2022-11-16T07:12:01.622Z,41.40
2022-11-16T07:13:01.608Z,42.40
2022-11-16T07:14:01.584Z,37.90
2022-11-16T07:15:01.593Z,35.30
2022-11-16T07:16:01.831Z,35.30
2022-11-16T07:17:06.543Z,39.80
2022-11-16T07:18:01.553Z,39.90
2022-11-16T07:19:01.559Z,34.40
2022-11-16T07:20:01.540Z,35.10
2022-11-16T07:21:01.530Z,35.00
2022-11-16T07:22:01.498Z,34.00
2022-11-16T07:23:01.489Z,35.60
2022-11-16T07:24:01.476Z,34.70
2022-11-16T07:25:01.475Z,36.90
2022-11-16T07:26:01.492Z,36.40
2022-11-16T07:27:01.460Z,36.40
2022-11-16T07:28:01.433Z,32.00
2022-11-16T07:29:01.420Z,34.20
2022-11-16T07:30:01.417Z,36.40
2022-11-16T07:31:01.421Z,36.30
2022-11-16T07:32:01.393Z,33.70
2022-11-16T07:33:01.382Z,34.00
2022-11-16T07:34:01.357Z,31.90
2022-11-16T07:35:01.396Z,31.10
2022-11-16T07:36:01.352Z,33.30
2022-11-16T07:37:01.368Z,33.10
2022-11-16T07:38:01.324Z,33.20
2022-11-16T07:39:01.319Z,32.50
2022-11-16T07:40:01.295Z,33.50
2022-11-16T07:41:01.311Z,34.80
2022-11-16T07:42:01.272Z,35.00
2022-11-16T07:43:01.260Z,36.00
2022-11-16T07:44:01.246Z,33.80
2022-11-16T07:45:01.241Z,33.10
2022-11-16T07:46:28.213Z,37.50
2022-11-16T07:47:01.220Z,31.00
2022-11-16T07:48:01.229Z,35.30
2022-11-16T07:49:01.201Z,31.50
2022-11-16T07:50:01.183Z,31.00
2022-11-16T07:51:01.194Z,33.20
2022-11-16T07:52:01.165Z,32.10
2022-11-16T07:53:01.167Z,33.40
2022-11-16T07:54:01.139Z,33.90
2022-11-16T07:55:01.137Z,35.60
2022-11-16T07:56:01.133Z,33.30
2022-11-16T07:57:01.125Z,34.60
2022-11-16T07:58:01.102Z,32.60
2022-11-16T07:59:01.092Z,32.90
2022-11-16T08:00:01.069Z,30.50
2022-11-16T08:01:01.101Z,29.70
2022-11-16T08:02:01.069Z,33.90
2022-11-16T08:03:01.070Z,29.20
2022-11-16T08:04:01.029Z,30.20
2022-11-16T08:05:01.023Z,30.70
2022-11-16T08:06:01.049Z,34.90
2022-11-16T08:07:01.039Z,32.40
2022-11-16T08:08:00.975Z,29.40
2022-11-16T08:09:01.006Z,29.60
2022-11-16T08:10:01.026Z,34.70
2022-11-16T08:11:00.964Z,32.10
2022-11-16T08:12:00.932Z,30.10
2022-11-16T08:13:01.030Z,33.30
2022-11-16T08:14:00.921Z,31.80
2022-11-16T08:15:00.903Z,31.50
2022-11-16T08:16:00.914Z,27.70
2022-11-16T08:17:00.887Z,32.30
2022-11-16T08:18:00.874Z,31.40
2022-11-16T08:19:00.903Z,31.40
2022-11-16T08:20:00.846Z,34.80
2022-11-16T08:21:00.853Z,33.30
2022-11-16T08:22:00.839Z,32.90
2022-11-16T08:23:00.825Z,30.00
2022-11-16T08:24:00.816Z,31.40
2022-11-16T08:25:00.799Z,34.50
2022-11-16T08:26:00.793Z,34.40
2022-11-16T08:27:00.788Z,33.10
2022-11-16T08:28:00.764Z,32.80
2022-11-16T08:29:00.756Z,31.00
2022-11-16T08:30:00.759Z,33.50
2022-11-16T08:31:00.749Z,33.10
2022-11-16T08:32:03.266Z,31.20
2022-11-16T08:33:00.715Z,31.00
2022-11-16T08:34:00.699Z,31.40
2022-11-16T08:35:00.702Z,33.10
2022-11-16T08:36:00.688Z,32.10
2022-11-16T08:37:00.679Z,30.60
2022-11-16T08:38:00.684Z,34.10
2022-11-16T08:39:00.659Z,33.10
2022-11-16T08:40:00.630Z,31.90
2022-11-16T08:41:00.637Z,32.50
2022-11-16T08:42:00.602Z,36.30
2022-11-16T08:43:00.607Z,33.00
2022-11-16T08:44:00.584Z,31.00
2022-11-16T08:45:00.577Z,28.80
2022-11-16T08:46:00.584Z,33.60
2022-11-16T08:47:00.563Z,30.20
2022-11-16T08:48:03.940Z,32.60
2022-11-16T08:49:00.530Z,36.50
2022-11-16T08:50:00.517Z,31.90
2022-11-16T08:51:17.935Z,31.70
2022-11-16T08:52:00.493Z,31.90
2022-11-16T08:53:00.491Z,29.90
2022-11-16T08:54:00.477Z,34.10
2022-11-16T08:55:00.469Z,33.10
2022-11-16T08:56:00.470Z,33.90
2022-11-16T08:57:00.444Z,33.70
2022-11-16T08:58:00.457Z,31.40
2022-11-16T08:59:00.456Z,28.90
2022-11-16T09:00:00.415Z,33.80
2022-11-16T09:01:00.413Z,30.80
2022-11-16T09:02:00.463Z,32.80
2022-11-16T09:03:00.412Z,32.30
2022-11-16T09:04:00.360Z,34.80
2022-11-16T09:05:00.349Z,32.40
2022-11-16T09:06:00.370Z,33.00
2022-11-16T09:07:00.397Z,33.60
2022-11-16T09:08:00.324Z,34.80
2022-11-16T09:09:00.337Z,34.40
2022-11-16T09:10:00.326Z,30.80
2022-11-16T09:11:00.306Z,37.30
2022-11-16T09:12:00.270Z,36.70
2022-11-16T09:13:00.279Z,35.20
2022-11-16T09:14:00.247Z,33.70
2022-11-16T09:15:00.243Z,34.70
2022-11-16T09:16:00.266Z,31.60
2022-11-16T09:17:00.220Z,32.40
2022-11-16T09:18:00.204Z,34.10
2022-11-16T09:19:00.204Z,34.50
2022-11-16T09:20:00.206Z,33.40
2022-11-16T09:21:00.197Z,33.80
2022-11-16T09:22:00.161Z,32.30
2022-11-16T09:23:00.154Z,34.70
2022-11-16T09:24:00.140Z,35.00
2022-11-16T09:25:00.159Z,34.70
2022-11-16T09:26:07.750Z,32.70
2022-11-16T09:27:00.107Z,35.80
2022-11-16T09:28:00.096Z,35.00
2022-11-16T09:29:00.096Z,34.00
2022-11-16T09:30:00.073Z,38.30
2022-11-16T09:31:00.100Z,31.10
2022-11-16T09:32:00.065Z,36.10
2022-11-16T09:33:00.043Z,38.40
2022-11-16T09:34:00.041Z,36.40
2022-11-16T09:35:00.017Z,33.50
2022-11-16T09:36:00.031Z,40.00
2022-11-16T09:36:59.995Z,38.10
2022-11-16T09:37:59.974Z,32.70
2022-11-16T09:39:59.988Z,32.40
2022-11-16T09:40:59.959Z,39.90
2022-11-16T09:41:59.958Z,36.80
2022-11-16T09:42:59.949Z,40.50
2022-11-16T09:43:59.992Z,38.00
2022-11-16T09:44:59.917Z,39.20
2022-11-16T09:45:59.903Z,37.20
2022-11-16T09:46:59.900Z,35.00
2022-11-16T09:47:59.872Z,40.30
2022-11-16T09:48:59.860Z,33.60
2022-11-16T09:50:03.659Z,36.70
2022-11-16T09:50:59.871Z,41.40
2022-11-16T09:51:59.848Z,36.50
2022-11-16T09:52:59.822Z,36.60
2022-11-16T09:53:59.827Z,39.90
2022-11-16T09:54:59.794Z,37.30
2022-11-16T09:55:59.794Z,38.80
2022-11-16T09:56:59.796Z,37.40
2022-11-16T09:57:59.767Z,35.80
2022-11-16T09:58:59.761Z,39.00
2022-11-16T09:59:59.771Z,36.20
2022-11-16T10:00:59.804Z,34.60
2022-11-16T10:01:59.725Z,40.20
2022-11-16T10:02:59.744Z,37.80
2022-11-16T10:03:59.697Z,40.90
2022-11-16T10:04:59.684Z,39.10
2022-11-16T10:05:59.678Z,40.90
2022-11-16T10:06:59.725Z,39.20
2022-11-16T10:07:59.645Z,39.50
2022-11-16T10:08:59.639Z,38.10
2022-11-16T10:09:59.635Z,42.80
2022-11-16T10:10:59.622Z,38.90
2022-11-16T10:11:59.633Z,36.40
2022-11-16T10:12:59.623Z,38.30
2022-11-16T10:14:03.971Z,43.60
2022-11-16T10:14:59.574Z,40.30
2022-11-16T10:15:59.564Z,44.20
2022-11-16T10:16:59.577Z,39.60
2022-11-16T10:17:59.539Z,43.90
2022-11-16T10:18:59.623Z,40.50
2022-11-16T10:19:59.521Z,43.80
2022-11-16T10:20:59.507Z,45.30
2022-11-16T10:21:59.514Z,38.20
2022-11-16T10:22:59.498Z,40.70
2022-11-16T10:23:59.473Z,40.00
2022-11-16T10:24:59.470Z,46.10
2022-11-16T10:25:59.458Z,42.50
2022-11-16T10:26:59.462Z,38.90
2022-11-16T10:27:59.420Z,40.20
2022-11-16T10:28:59.445Z,44.50
2022-11-16T10:29:59.426Z,41.10
2022-11-16T10:30:59.400Z,42.90
2022-11-16T10:31:59.392Z,44.50
2022-11-16T10:32:59.374Z,39.10
2022-11-16T10:33:59.351Z,42.50
2022-11-16T10:34:59.372Z,45.80
2022-11-16T10:35:59.337Z,41.90
2022-11-16T10:36:59.407Z,43.40
2022-11-16T10:37:59.372Z,44.60
2022-11-16T10:38:59.321Z,40.60
2022-11-16T10:39:59.315Z,42.30
2022-11-16T10:40:59.286Z,44.30
2022-11-16T10:42:03.222Z,41.30
2022-11-16T10:42:59.274Z,39.70
2022-11-16T10:43:59.258Z,44.10
2022-11-16T10:44:59.239Z,39.10
2022-11-16T10:45:59.273Z,48.40
2022-11-16T10:46:59.248Z,41.70
2022-11-16T10:47:59.224Z,47.40
2022-11-16T10:48:59.204Z,45.40
2022-11-16T10:49:59.186Z,45.20
2022-11-16T10:50:59.173Z,42.40
2022-11-16T10:51:59.176Z,41.30
2022-11-16T10:52:59.162Z,45.50
2022-11-16T10:53:59.138Z,42.10
2022-11-16T10:54:59.145Z,41.90
2022-11-16T10:55:59.112Z,48.00
2022-11-16T10:56:59.137Z,41.10
2022-11-16T10:57:59.105Z,40.90
2022-11-16T10:58:59.095Z,39.10
2022-11-16T10:59:59.113Z,44.00
2022-11-16T11:00:59.135Z,42.90
2022-11-16T11:01:59.114Z,42.50
2022-11-16T11:02:59.044Z,44.60
2022-11-16T11:03:59.030Z,42.60
2022-11-16T11:04:59.042Z,41.50
2022-11-16T11:05:59.029Z,39.90
2022-11-16T11:06:59.188Z,42.90
2022-11-16T11:07:59.782Z,39.60
2022-11-16T11:08:58.980Z,44.40
2022-11-16T11:09:58.972Z,41.80
2022-11-16T11:10:58.976Z,42.30
2022-11-16T11:11:58.987Z,44.90
2022-11-16T11:12:58.956Z,41.30
2022-11-16T11:13:58.992Z,43.70
2022-11-16T11:14:58.942Z,43.50
2022-11-16T11:15:58.902Z,41.80
2022-11-16T11:16:58.906Z,42.70
2022-11-16T11:17:58.907Z,43.40
2022-11-16T11:18:58.868Z,44.30
2022-11-16T11:19:58.865Z,36.70
2022-11-16T11:20:58.891Z,38.80
2022-11-16T11:21:58.833Z,45.50
2022-11-16T11:22:58.854Z,39.40
2022-11-16T11:24:16.116Z,37.60
2022-11-16T11:24:58.832Z,40.40
2022-11-16T11:25:58.796Z,41.70
2022-11-16T11:26:58.821Z,38.80
2022-11-16T11:27:58.770Z,44.60
2022-11-16T11:28:58.813Z,40.10
2022-11-16T11:29:58.770Z,40.00
2022-11-16T11:30:58.753Z,40.30
2022-11-16T11:31:58.753Z,44.00
2022-11-16T11:32:58.745Z,41.60
2022-11-16T11:33:58.736Z,42.20
2022-11-16T11:34:58.722Z,40.40
2022-11-16T11:35:58.668Z,47.60
2022-11-16T11:36:58.662Z,43.20
2022-11-16T11:38:02.151Z,34.00
2022-11-16T11:38:58.724Z,42.40
2022-11-16T11:39:58.632Z,41.00
2022-11-16T11:40:58.636Z,38.70
2022-11-16T11:41:58.617Z,39.60
2022-11-16T11:42:58.596Z,41.40
2022-11-16T11:43:58.587Z,42.50
2022-11-16T11:44:58.576Z,34.80
2022-11-16T11:45:58.561Z,38.90
2022-11-16T11:47:59.803Z,38.10
2022-11-16T11:48:58.546Z,40.00
2022-11-16T11:49:58.536Z,38.00
2022-11-16T11:50:58.515Z,40.30
2022-11-16T11:51:58.490Z,39.00
2022-11-16T11:52:58.498Z,41.70
2022-11-16T11:53:58.467Z,35.20
2022-11-16T11:54:58.467Z,38.20
2022-11-16T11:55:58.458Z,34.50
2022-11-16T11:56:58.443Z,35.70
2022-11-16T11:57:58.422Z,34.00
2022-11-16T11:58:58.435Z,39.60
2022-11-16T11:59:58.400Z,38.60
2022-11-16T12:00:58.399Z,34.90
2022-11-16T12:01:58.391Z,37.20
2022-11-16T12:02:58.422Z,33.80
2022-11-16T12:03:58.352Z,35.50
2022-11-16T12:04:58.372Z,34.30
2022-11-16T12:05:58.334Z,37.50
2022-11-16T12:06:58.339Z,32.80
2022-11-16T12:07:58.316Z,38.10
2022-11-16T12:08:58.306Z,38.60
2022-11-16T12:09:58.291Z,36.60
2022-11-16T12:10:58.336Z,35.50
2022-11-16T12:11:58.281Z,38.00
2022-11-16T12:12:58.265Z,33.20
2022-11-16T12:13:58.265Z,36.00
2022-11-16T12:14:58.235Z,36.10
2022-11-16T12:15:58.223Z,36.90
2022-11-16T12:16:58.245Z,33.00
2022-11-16T12:17:58.198Z,39.20
2022-11-16T12:18:58.216Z,36.60
2022-11-16T12:19:58.200Z,36.70
2022-11-16T12:20:58.176Z,36.10
2022-11-16T12:21:58.154Z,34.10
2022-11-16T12:23:02.660Z,39.10
2022-11-16T12:23:58.140Z,36.30
2022-11-16T12:24:58.129Z,38.00
2022-11-16T12:25:58.109Z,37.10
2022-11-16T12:26:58.113Z,40.60
2022-11-16T12:27:58.096Z,37.10
2022-11-16T12:28:58.095Z,39.20
2022-11-16T12:29:58.070Z,37.80
2022-11-16T12:30:58.062Z,38.90
2022-11-16T12:31:58.041Z,38.40
2022-11-16T12:32:58.049Z,39.40
2022-11-16T12:33:58.037Z,39.00
2022-11-16T12:34:58.048Z,38.60
2022-11-16T12:35:58.009Z,39.50
2022-11-16T12:36:58.001Z,41.10
2022-11-16T12:37:57.982Z,40.30
2022-11-16T12:38:57.975Z,39.90
2022-11-16T12:39:57.962Z,38.60
2022-11-16T12:40:57.966Z,41.90
2022-11-16T12:41:57.940Z,39.80
2022-11-16T12:42:57.984Z,41.50
2022-11-16T12:43:57.913Z,41.00
2022-11-16T12:44:57.922Z,39.20
2022-11-16T12:45:57.888Z,41.70
2022-11-16T12:46:57.899Z,43.90
2022-11-16T12:47:57.876Z,43.50
2022-11-16T12:48:57.865Z,39.90
2022-11-16T12:49:57.865Z,41.20
2022-11-16T12:50:57.841Z,42.60
2022-11-16T12:51:57.866Z,44.60
2022-11-16T12:52:57.843Z,40.70
2022-11-16T12:53:57.809Z,43.40
2022-11-16T12:55:24.665Z,40.90
2022-11-16T12:55:57.785Z,39.90
2022-11-16T12:56:57.777Z,38.60
2022-11-16T12:57:57.761Z,41.30
2022-11-16T12:58:57.774Z,39.30
2022-11-16T12:59:57.737Z,45.00
2022-11-16T13:00:57.795Z,39.30
2022-11-16T13:02:00.571Z,46.40
2022-11-16T13:02:57.709Z,45.70
2022-11-16T13:03:57.700Z,43.30
2022-11-16T13:04:57.702Z,41.40
2022-11-16T13:05:57.678Z,42.30
2022-11-16T13:06:57.724Z,43.40
2022-11-16T13:07:57.651Z,42.70
2022-11-16T13:08:57.642Z,38.80
2022-11-16T13:09:57.620Z,38.80
2022-11-16T13:10:59.567Z,39.30
2022-11-16T13:11:57.955Z,40.80
2022-11-16T13:13:21.865Z,40.30
2022-11-16T13:13:58.047Z,40.40
2022-11-16T13:14:57.673Z,38.90
2022-11-16T13:16:02.637Z,39.30
2022-11-16T13:16:58.871Z,41.00
2022-11-16T13:17:57.665Z,36.30
2022-11-16T13:18:58.113Z,39.60
2022-11-16T13:19:58.538Z,42.40
2022-11-16T13:20:57.704Z,36.70
2022-11-16T13:21:57.811Z,33.80
2022-11-16T13:22:57.969Z,38.80
2022-11-16T13:23:57.610Z,37.10
2022-11-16T13:24:57.885Z,35.90
2022-11-16T13:25:57.567Z,35.70
2022-11-16T13:26:57.611Z,35.70
2022-11-16T13:27:57.643Z,36.00
2022-11-16T13:28:57.676Z,36.50
2022-11-16T13:29:57.587Z,38.20
2022-11-16T13:30:57.526Z,36.30
2022-11-16T13:31:57.492Z,37.30
2022-11-16T13:32:57.382Z,42.80
2022-11-16T13:33:57.379Z,42.70
2022-11-16T13:34:57.382Z,44.10
2022-11-16T13:35:57.370Z,39.20
2022-11-16T13:36:57.353Z,40.30
2022-11-16T13:37:57.342Z,43.30
2022-11-16T13:38:57.331Z,39.60
2022-11-16T13:39:58.171Z,37.90
2022-11-16T13:40:57.325Z,39.30
2022-11-16T13:41:57.280Z,42.60
2022-11-16T13:42:57.277Z,40.60
2022-11-16T13:43:57.257Z,41.10
2022-11-16T13:44:57.245Z,41.60
2022-11-16T13:45:57.226Z,44.70
2022-11-16T13:46:57.451Z,46.20
2022-11-16T13:47:57.210Z,46.50
2022-11-16T13:48:57.201Z,45.60
2022-11-16T13:49:57.189Z,43.80
2022-11-16T13:50:57.184Z,44.20
2022-11-16T13:52:03.426Z,49.00
2022-11-16T13:54:43.874Z,46.80
2022-11-16T13:54:57.265Z,47.70
2022-11-16T13:55:57.120Z,51.70
2022-11-16T13:56:57.114Z,50.30
2022-11-16T13:57:57.106Z,49.20
2022-11-16T13:58:57.401Z,48.80
2022-11-16T13:59:57.079Z,47.10
2022-11-16T14:00:57.229Z,50.30
2022-11-16T14:01:57.051Z,50.00
2022-11-16T14:03:01.111Z,53.20
2022-11-16T14:03:57.043Z,53.10
2022-11-16T14:04:57.040Z,51.60
2022-11-16T14:05:57.023Z,51.70
2022-11-16T14:06:57.082Z,57.70
2022-11-16T14:07:56.987Z,59.10
2022-11-16T14:08:56.990Z,55.40
2022-11-16T14:09:56.965Z,53.80
2022-11-16T14:10:56.972Z,50.90
2022-11-16T14:11:56.948Z,57.30
2022-11-16T14:12:56.946Z,51.60
2022-11-16T14:13:56.942Z,46.90
2022-11-16T14:15:02.295Z,53.60
2022-11-16T14:15:56.916Z,56.00
2022-11-16T14:16:56.925Z,49.70
2022-11-16T14:17:56.876Z,53.40
2022-11-16T14:18:56.869Z,50.70
2022-11-16T14:19:56.856Z,56.80
2022-11-16T14:20:56.855Z,46.50
2022-11-16T14:21:56.871Z,47.30
2022-11-16T14:22:56.891Z,51.10
2022-11-16T14:23:56.826Z,45.80
2022-11-16T14:24:56.799Z,49.30
2022-11-16T14:25:56.793Z,47.90
2022-11-16T14:26:56.783Z,45.30
2022-11-16T14:27:56.865Z,47.90
2022-11-16T14:28:56.775Z,46.50
2022-11-16T14:29:56.761Z,42.30
2022-11-16T14:30:56.741Z,46.30
2022-11-16T14:31:56.723Z,48.50
2022-11-16T14:32:56.714Z,44.90
2022-11-16T14:33:56.706Z,41.00
2022-11-16T14:34:56.717Z,42.60
2022-11-16T14:35:56.681Z,46.50
2022-11-16T14:36:56.681Z,42.40
2022-11-16T14:37:56.683Z,43.00
2022-11-16T14:38:56.641Z,41.40
2022-11-16T14:39:56.624Z,45.00
2022-11-16T14:40:59.696Z,42.60
2022-11-16T14:41:56.630Z,43.10
2022-11-16T14:43:56.599Z,35.70
2022-11-16T14:44:56.575Z,40.80
2022-11-16T14:45:56.581Z,41.30
2022-11-16T14:46:56.579Z,35.70
2022-11-16T14:47:56.535Z,44.30
2022-11-16T14:48:56.534Z,39.10
2022-11-16T14:49:56.566Z,39.10
2022-11-16T14:50:56.519Z,37.00
2022-11-16T14:51:56.507Z,35.20
2022-11-16T14:52:56.520Z,35.40
2022-11-16T14:53:56.477Z,38.40
2022-11-16T14:54:56.463Z,39.00
2022-11-16T14:55:56.458Z,35.90
2022-11-16T14:56:56.448Z,35.90
2022-11-16T14:57:56.429Z,37.10
2022-11-16T14:58:56.439Z,37.80
2022-11-16T14:59:56.417Z,35.60
2022-11-16T15:00:56.413Z,35.10
2022-11-16T15:01:56.389Z,29.90
2022-11-16T15:03:02.137Z,37.00
2022-11-16T15:03:56.433Z,35.30
2022-11-16T15:04:56.405Z,34.40
2022-11-16T15:05:56.344Z,37.00
2022-11-16T15:06:56.459Z,37.70
2022-11-16T15:07:56.320Z,34.00
2022-11-16T15:08:56.313Z,35.00
2022-11-16T15:09:56.310Z,35.70
2022-11-16T15:10:56.314Z,34.30
2022-11-16T15:11:56.276Z,31.70
2022-11-16T15:12:56.262Z,32.30
2022-11-16T15:13:56.295Z,37.80
2022-11-16T15:14:56.254Z,32.00
2022-11-16T15:15:56.259Z,34.50
2022-11-16T15:16:56.231Z,31.30
2022-11-16T15:17:56.197Z,36.60
2022-11-16T15:18:56.200Z,33.20
2022-11-16T15:19:56.181Z,28.60
2022-11-16T15:20:56.165Z,34.30
2022-11-16T15:21:56.302Z,37.10
2022-11-16T15:22:56.503Z,34.70
2022-11-16T15:24:23.601Z,36.30
2022-11-16T15:24:56.181Z,33.50
2022-11-16T15:26:02.678Z,33.40
2022-11-16T15:26:56.112Z,33.00
2022-11-16T15:27:56.093Z,37.30
2022-11-16T15:28:56.098Z,33.10
2022-11-16T15:29:56.078Z,37.00
2022-11-16T15:30:56.068Z,39.40
2022-11-16T15:31:56.055Z,32.70
2022-11-16T15:32:56.096Z,33.20
2022-11-16T15:33:56.032Z,37.10
2022-11-16T15:34:56.770Z,34.00
2022-11-16T15:35:56.006Z,42.40
2022-11-16T15:36:56.023Z,35.30
2022-11-16T15:37:55.995Z,41.40
2022-11-16T15:38:55.980Z,42.70
2022-11-16T15:39:55.968Z,41.40
2022-11-16T15:40:55.964Z,36.80
2022-11-16T15:42:02.118Z,39.90
2022-11-16T15:42:55.965Z,40.00
2022-11-16T15:44:13.314Z,40.70
2022-11-16T15:44:55.999Z,44.50
2022-11-16T15:45:55.903Z,42.50
2022-11-16T15:46:55.904Z,41.80
2022-11-16T15:47:55.900Z,45.70
2022-11-16T15:48:55.876Z,40.10
2022-11-16T15:49:55.849Z,41.40
2022-11-16T15:51:00.082Z,43.20
2022-11-16T15:51:55.842Z,43.40
2022-11-16T15:52:55.846Z,43.50
2022-11-16T15:53:55.816Z,41.40
2022-11-16T15:54:55.791Z,49.10
2022-11-16T15:55:55.984Z,46.00
2022-11-16T15:56:55.821Z,44.70
2022-11-16T15:57:55.792Z,44.50
2022-11-16T15:58:55.770Z,45.90
2022-11-16T15:59:55.771Z,50.40
2022-11-16T16:00:55.795Z,48.00
2022-11-16T16:01:55.717Z,39.00
2022-11-16T16:02:55.704Z,47.70
2022-11-16T16:03:55.698Z,46.30
2022-11-16T16:04:55.698Z,51.50
2022-11-16T16:05:55.690Z,44.90
2022-11-16T16:06:55.720Z,43.50
2022-11-16T16:07:55.659Z,42.50
2022-11-16T16:08:55.642Z,52.30
2022-11-16T16:09:55.638Z,49.00
2022-11-16T16:10:55.645Z,42.20
2022-11-16T16:11:55.624Z,46.30
2022-11-16T16:12:55.600Z,52.00
2022-11-16T16:13:55.588Z,51.40
2022-11-16T16:14:55.590Z,45.80
2022-11-16T16:15:55.567Z,50.60
2022-11-16T16:16:55.593Z,46.30
2022-11-16T16:17:55.546Z,46.70
2022-11-16T16:18:55.538Z,45.70
2022-11-16T16:19:55.535Z,48.10
2022-11-16T16:20:55.510Z,50.90
2022-11-16T16:21:55.495Z,47.80